createdAt,value
2019-01-26T00:00:37.701Z,5.50
2019-01-26T00:05:30.536Z,5.50
2019-01-26T00:10:23.382Z,5.60
2019-01-26T00:15:16.222Z,5.50
2019-01-26T00:20:09.119Z,5.70
2019-01-26T00:25:01.953Z,5.60
2019-01-26T00:29:54.858Z,5.70
2019-01-26T00:34:47.955Z,5.90
2019-01-26T00:39:41.971Z,6.00
2019-01-26T00:44:34.830Z,6.00
2019-01-26T00:49:27.656Z,6.10
2019-01-26T00:54:20.554Z,5.90
2019-01-26T00:59:13.521Z,5.90
2019-01-26T01:04:06.404Z,5.80
2019-01-26T01:08:59.259Z,5.80
2019-01-26T01:13:52.089Z,5.80
2019-01-26T01:18:44.925Z,5.80
2019-01-26T01:23:37.796Z,6.00
2019-01-26T01:28:30.717Z,5.90
2019-01-26T01:33:23.570Z,5.90
2019-01-26T01:38:16.583Z,5.90
2019-01-26T01:43:09.421Z,6.00
2019-01-26T01:48:02.255Z,6.10
2019-01-26T01:52:55.136Z,6.20
2019-01-26T01:57:47.967Z,6.10
2019-01-26T02:02:40.788Z,6.00
2019-01-26T02:07:33.620Z,6.10
2019-01-26T02:12:26.501Z,6.20
2019-01-26T02:17:38.883Z,6.20
2019-01-26T02:22:32.877Z,5.70
2019-01-26T02:27:25.691Z,6.10
2019-01-26T02:32:18.565Z,5.90
2019-01-26T02:37:11.386Z,6.00
2019-01-26T02:42:04.442Z,6.00
2019-01-26T02:46:58.059Z,6.10
2019-01-26T02:51:51.330Z,6.20
2019-01-26T02:56:44.221Z,6.30
2019-01-26T03:01:37.144Z,6.20
2019-01-26T03:06:29.979Z,6.30
2019-01-26T03:11:22.807Z,6.30
2019-01-26T03:16:15.647Z,6.10
2019-01-26T03:21:08.490Z,6.20
2019-01-26T03:26:01.415Z,6.40
2019-01-26T03:30:55.303Z,6.50
2019-01-26T03:35:48.824Z,6.50
2019-01-26T03:40:41.657Z,6.50
2019-01-26T03:45:34.516Z,6.60
2019-01-26T03:50:27.354Z,6.60
2019-01-26T03:55:21.007Z,6.60
2019-01-26T04:00:17.701Z,6.50
2019-01-26T04:05:10.718Z,6.60
2019-01-26T04:10:05.262Z,6.70
2019-01-26T04:14:58.109Z,6.80
2019-01-26T04:19:50.944Z,6.70
2019-01-26T04:24:43.784Z,6.70
2019-01-26T04:29:36.622Z,6.70
2019-01-26T04:34:29.493Z,6.70
2019-01-26T04:39:22.353Z,6.70
2019-01-26T04:44:15.188Z,6.70
2019-01-26T04:49:08.018Z,6.80
2019-01-26T04:54:00.837Z,6.90
2019-01-26T04:58:53.663Z,6.80
2019-01-26T05:03:46.616Z,6.80
2019-01-26T05:08:39.449Z,6.80
2019-01-26T05:13:32.280Z,7.10
2019-01-26T05:18:25.132Z,7.30
2019-01-26T05:23:18.011Z,7.20
2019-01-26T05:28:10.832Z,7.20
2019-01-26T05:33:03.660Z,7.20
2019-01-26T05:37:56.520Z,7.20
2019-01-26T05:42:49.347Z,7.30
2019-01-26T05:47:48.082Z,7.20
2019-01-26T05:52:36.943Z,7.30
2019-01-26T05:57:29.753Z,7.30
2019-01-26T06:02:24.376Z,7.20
2019-01-26T06:07:17.220Z,7.20
2019-01-26T06:12:10.061Z,7.10
2019-01-26T06:17:02.886Z,7.10
2019-01-26T06:21:55.690Z,7.10
2019-01-26T06:26:48.553Z,7.00
2019-01-26T06:31:41.384Z,7.10
2019-01-26T06:36:34.217Z,7.10
2019-01-26T06:41:27.028Z,6.90
2019-01-26T06:46:19.873Z,7.00
2019-01-26T06:51:12.731Z,7.00
2019-01-26T06:56:08.749Z,7.00
2019-01-26T07:01:01.606Z,7.10
2019-01-26T07:06:05.995Z,7.20
2019-01-26T07:10:58.824Z,7.30
2019-01-26T07:15:52.759Z,7.40
2019-01-26T07:20:45.759Z,7.40
2019-01-26T07:25:38.576Z,7.30
2019-01-26T07:30:31.428Z,7.20
2019-01-26T07:35:24.248Z,7.10
2019-01-26T07:40:19.064Z,7.20
2019-01-26T07:45:12.543Z,7.20
2019-01-26T07:50:08.783Z,7.30
2019-01-26T07:55:01.628Z,7.50
2019-01-26T07:59:54.496Z,7.60
2019-01-26T08:04:47.329Z,7.70
2019-01-26T08:09:40.199Z,7.60
2019-01-26T08:14:33.025Z,7.70
2019-01-26T08:19:25.878Z,7.70
2019-01-26T08:24:18.725Z,7.60
2019-01-26T08:29:11.569Z,7.60
2019-01-26T08:34:04.602Z,7.80
2019-01-26T08:38:57.428Z,7.80
2019-01-26T08:43:51.296Z,7.70
2019-01-26T08:48:44.308Z,7.80
2019-01-26T08:53:37.121Z,7.80
2019-01-26T08:58:29.973Z,7.90
2019-01-26T09:03:31.974Z,8.00
2019-01-26T09:08:24.839Z,7.90
2019-01-26T09:13:17.653Z,7.90
2019-01-26T09:18:10.472Z,8.00
2019-01-26T09:23:03.355Z,8.10
2019-01-26T09:27:56.373Z,8.00
2019-01-26T09:32:49.354Z,8.00
2019-01-26T09:37:42.164Z,8.00
2019-01-26T09:42:35.062Z,8.10
2019-01-26T09:47:27.933Z,8.10
2019-01-26T09:52:20.790Z,8.40
2019-01-26T09:57:13.642Z,8.70
2019-01-26T10:02:06.480Z,9.10
2019-01-26T10:06:59.393Z,9.20
2019-01-26T10:11:52.204Z,9.20
2019-01-26T10:16:45.063Z,9.00
2019-01-26T10:21:37.899Z,9.10
2019-01-26T10:26:30.748Z,9.20
2019-01-26T10:31:23.581Z,9.50
2019-01-26T10:36:38.989Z,9.50
2019-01-26T10:41:44.015Z,9.60
2019-01-26T10:46:36.856Z,9.30
2019-01-26T10:51:29.685Z,9.20
2019-01-26T10:56:22.521Z,9.20
2019-01-26T11:01:15.378Z,9.40
2019-01-26T11:06:10.539Z,9.80
2019-01-26T11:11:03.756Z,9.80
2019-01-26T11:15:56.584Z,9.80
2019-01-26T11:20:49.432Z,10.00
2019-01-26T11:25:42.316Z,9.90
2019-01-26T11:30:35.967Z,9.90
2019-01-26T11:35:28.822Z,9.70
2019-01-26T11:40:22.100Z,9.60
2019-01-26T11:45:40.944Z,9.80
2019-01-26T11:50:39.452Z,10.30
2019-01-26T11:55:39.710Z,10.80
2019-01-26T12:00:50.712Z,11.40
2019-01-26T12:05:49.783Z,11.70
2019-01-26T12:10:42.769Z,11.10
2019-01-26T12:15:35.590Z,10.70
2019-01-26T12:20:28.446Z,10.70
2019-01-26T12:25:21.299Z,10.90
2019-01-26T12:30:14.290Z,11.00
2019-01-26T12:35:12.290Z,10.90
2019-01-26T12:40:06.451Z,10.30
2019-01-26T12:44:59.281Z,9.80
2019-01-26T12:49:52.121Z,9.70
2019-01-26T12:54:44.934Z,9.80
2019-01-26T12:59:37.785Z,9.90
2019-01-26T13:04:30.636Z,9.90
2019-01-26T13:09:23.506Z,9.70
2019-01-26T13:14:16.457Z,9.60
2019-01-26T13:19:09.284Z,9.50
2019-01-26T13:24:02.142Z,9.50
2019-01-26T13:28:54.991Z,9.50
2019-01-26T13:33:47.834Z,9.30
2019-01-26T13:38:40.655Z,9.50
2019-01-26T13:43:33.543Z,9.60
2019-01-26T13:48:26.364Z,9.80
2019-01-26T13:53:19.336Z,9.90
2019-01-26T13:58:12.152Z,9.80
2019-01-26T14:03:05.611Z,9.80
2019-01-26T14:07:58.474Z,9.50
2019-01-26T14:12:51.440Z,9.40
2019-01-26T14:17:44.259Z,9.40
2019-01-26T14:22:37.081Z,9.40
2019-01-26T14:27:31.101Z,9.50
2019-01-26T14:32:23.978Z,9.50
2019-01-26T14:37:16.828Z,9.40
2019-01-26T14:42:09.682Z,9.30
2019-01-26T14:47:02.478Z,9.20
2019-01-26T14:51:55.317Z,9.10
2019-01-26T14:56:48.192Z,9.00
2019-01-26T15:01:41.058Z,9.00
2019-01-26T15:06:33.952Z,8.90
2019-01-26T15:11:26.789Z,8.90
2019-01-26T15:16:19.944Z,8.90
2019-01-26T15:21:12.818Z,8.70
2019-01-26T15:26:05.877Z,8.70
2019-01-26T15:31:00.534Z,8.60
2019-01-26T15:35:54.840Z,8.50
2019-01-26T15:40:47.665Z,8.40
2019-01-26T15:45:47.159Z,8.40
2019-01-26T15:50:42.056Z,8.50
2019-01-26T15:55:35.189Z,8.40
2019-01-26T16:00:31.322Z,8.40
2019-01-26T16:05:24.175Z,8.40
2019-01-26T16:10:19.815Z,8.30
2019-01-26T16:15:16.580Z,8.30
2019-01-26T16:20:11.199Z,8.20
2019-01-26T16:25:05.041Z,7.90
2019-01-26T16:29:57.891Z,7.70
2019-01-26T16:34:50.970Z,7.60
2019-01-26T16:39:43.818Z,7.50
2019-01-26T16:44:36.792Z,7.50
2019-01-26T16:49:29.673Z,7.50
2019-01-26T16:54:22.498Z,7.50
2019-01-26T16:59:15.351Z,7.50
2019-01-26T17:04:08.207Z,7.40
2019-01-26T17:09:01.095Z,7.50
2019-01-26T17:13:54.117Z,7.50
2019-01-26T17:18:46.943Z,7.40
2019-01-26T17:23:39.792Z,7.40
2019-01-26T17:28:32.671Z,7.30
2019-01-26T17:33:25.534Z,7.30
2019-01-26T17:38:18.511Z,7.30
2019-01-26T17:43:12.014Z,7.20
2019-01-26T17:48:07.114Z,7.20
2019-01-26T17:53:01.781Z,7.20
2019-01-26T17:57:54.660Z,7.30
2019-01-26T18:02:47.510Z,7.30
2019-01-26T18:07:40.337Z,7.30
2019-01-26T18:12:33.177Z,7.30
2019-01-26T18:17:26.683Z,7.30
2019-01-26T18:22:19.526Z,7.30
2019-01-26T18:27:12.363Z,7.30
2019-01-26T18:32:05.449Z,7.40
2019-01-26T18:36:58.293Z,7.40
2019-01-26T18:41:51.294Z,7.30
2019-01-26T18:46:44.165Z,7.40
2019-01-26T18:51:37.058Z,7.40
2019-01-26T18:56:30.016Z,7.40
2019-01-26T19:01:22.928Z,7.40
2019-01-26T19:06:15.826Z,7.40
2019-01-26T19:11:08.767Z,7.40
2019-01-26T19:16:01.650Z,7.40
2019-01-26T19:20:54.504Z,7.40
2019-01-26T19:25:47.556Z,7.40
2019-01-26T19:30:40.381Z,7.40
2019-01-26T19:35:33.318Z,7.40
2019-01-26T19:40:26.164Z,7.40
2019-01-26T19:45:19.965Z,7.30
2019-01-26T19:50:17.058Z,7.30
2019-01-26T19:55:10.093Z,7.40
2019-01-26T20:00:05.928Z,7.40
2019-01-26T20:04:58.760Z,7.40
2019-01-26T20:09:52.187Z,7.40
2019-01-26T20:14:45.057Z,7.40
2019-01-26T20:19:37.898Z,7.40
2019-01-26T20:24:30.838Z,7.40
2019-01-26T20:29:23.690Z,7.40
2019-01-26T20:34:16.530Z,7.40
2019-01-26T20:39:09.347Z,7.40
2019-01-26T20:44:02.188Z,7.40
2019-01-26T20:48:55.044Z,7.30
2019-01-26T20:53:49.716Z,7.30
2019-01-26T20:58:42.592Z,7.30
2019-01-26T21:03:37.637Z,7.30
2019-01-26T21:08:30.632Z,7.10
2019-01-26T21:13:23.487Z,7.10
2019-01-26T21:18:16.604Z,7.00
2019-01-26T21:23:09.843Z,6.90
2019-01-26T21:28:03.001Z,6.90
2019-01-26T21:32:57.006Z,6.90
2019-01-26T21:37:49.874Z,6.90
2019-01-26T21:42:42.731Z,6.80
2019-01-26T21:47:35.581Z,6.70
2019-01-26T21:52:28.444Z,6.70
2019-01-26T21:57:21.276Z,6.70
2019-01-26T22:02:14.128Z,6.70
2019-01-26T22:07:06.977Z,6.70
2019-01-26T22:11:59.836Z,6.70
2019-01-26T22:16:52.687Z,6.90
2019-01-26T22:21:49.227Z,6.80
2019-01-26T22:26:42.063Z,6.90
2019-01-26T22:31:35.857Z,6.80
2019-01-26T22:36:28.740Z,6.80
2019-01-26T22:41:22.883Z,6.80
2019-01-26T22:46:15.801Z,6.80
2019-01-26T22:51:08.654Z,6.80
2019-01-26T22:56:01.509Z,6.80
2019-01-26T23:01:29.462Z,6.80
2019-01-26T23:07:08.782Z,6.80
2019-01-26T23:12:34.253Z,6.80
2019-01-26T23:18:04.845Z,6.90
2019-01-26T23:23:53.574Z,6.90
2019-01-26T23:29:53.953Z,6.80
2019-01-26T23:34:46.774Z,6.80
2019-01-26T23:39:39.609Z,6.80
2019-01-26T23:44:38.389Z,6.90
2019-01-26T23:49:31.321Z,6.90
2019-01-26T23:54:24.173Z,6.90
2019-01-26T23:59:17.088Z,6.90
